createdAt,value
2018-10-09T00:01:21.756Z,6.50
2018-10-09T00:04:26.078Z,6.83
2018-10-09T00:07:30.423Z,7.20
2018-10-09T00:10:34.696Z,7.77
2018-10-09T00:13:39.246Z,7.47
2018-10-09T00:16:43.597Z,7.47
2018-10-09T00:19:47.852Z,8.70
2018-10-09T00:22:53.245Z,8.07
2018-10-09T00:25:57.633Z,8.43
2018-10-09T00:29:01.857Z,8.73
2018-10-09T00:32:06.170Z,8.23
2018-10-09T00:35:10.524Z,9.23
2018-10-09T00:38:14.831Z,9.07
2018-10-09T00:41:20.130Z,8.90
2018-10-09T00:44:24.572Z,8.93
2018-10-09T00:47:28.861Z,9.40
2018-10-09T00:50:33.135Z,9.93
2018-10-09T00:53:38.358Z,10.20
2018-10-09T00:56:42.745Z,9.80
2018-10-09T00:59:47.213Z,10.40
2018-10-09T01:02:51.495Z,10.60
2018-10-09T01:05:55.803Z,10.87
2018-10-09T01:09:00.200Z,11.10
2018-10-09T01:12:04.574Z,10.20
2018-10-09T01:15:08.883Z,10.80
2018-10-09T01:18:13.172Z,10.33
2018-10-09T01:21:17.510Z,11.50
2018-10-09T01:24:21.857Z,11.07
2018-10-09T01:27:26.140Z,11.83
2018-10-09T01:30:30.837Z,12.27
2018-10-09T01:33:35.199Z,12.43
2018-10-09T01:36:39.463Z,12.23
2018-10-09T01:39:43.806Z,13.13
2018-10-09T01:42:48.103Z,13.17
2018-10-09T01:45:52.514Z,13.97
2018-10-09T01:48:56.803Z,14.17
2018-10-09T01:52:01.096Z,14.37
2018-10-09T01:55:05.645Z,13.63
2018-10-09T01:58:09.980Z,14.80
2018-10-09T02:01:14.263Z,16.10
2018-10-09T02:04:18.504Z,17.27
2018-10-09T02:07:22.816Z,16.50
2018-10-09T02:10:27.187Z,16.67
2018-10-09T02:13:31.475Z,15.90
2018-10-09T02:16:35.747Z,15.27
2018-10-09T02:19:40.017Z,15.50
2018-10-09T02:22:44.338Z,15.50
2018-10-09T02:25:48.673Z,16.10
2018-10-09T02:28:53.149Z,16.13
2018-10-09T02:31:57.406Z,15.37
2018-10-09T02:35:01.741Z,15.77
2018-10-09T02:38:06.124Z,17.50
2018-10-09T02:41:10.478Z,15.70
2018-10-09T02:44:14.790Z,16.17
2018-10-09T02:47:19.158Z,15.07
2018-10-09T02:50:23.407Z,15.90
2018-10-09T02:53:27.676Z,15.93
2018-10-09T02:56:31.965Z,16.10
2018-10-09T02:59:36.304Z,15.90
2018-10-09T03:02:40.624Z,15.57
2018-10-09T03:05:45.066Z,16.63
2018-10-09T03:08:49.386Z,15.70
2018-10-09T03:11:53.687Z,16.20
2018-10-09T03:14:58.163Z,16.33
2018-10-09T03:18:02.436Z,15.93
2018-10-09T03:21:06.837Z,16.93
2018-10-09T03:24:11.181Z,17.13
2018-10-09T03:27:15.499Z,16.93
2018-10-09T03:30:19.852Z,16.47
2018-10-09T03:33:24.259Z,16.60
2018-10-09T03:36:28.586Z,17.57
2018-10-09T03:39:32.894Z,16.23
2018-10-09T03:42:37.166Z,17.97
2018-10-09T03:45:41.566Z,16.67
2018-10-09T03:48:45.838Z,18.30
2018-10-09T03:51:50.196Z,17.30
2018-10-09T03:54:54.453Z,17.33
2018-10-09T03:57:58.833Z,18.93
2018-10-09T04:01:03.170Z,18.20
2018-10-09T04:04:07.552Z,18.60
2018-10-09T04:07:11.896Z,17.67
2018-10-09T04:10:16.219Z,20.13
2018-10-09T04:13:20.476Z,19.83
2018-10-09T04:16:24.753Z,18.47
2018-10-09T04:19:29.137Z,18.73
2018-10-09T04:22:33.370Z,20.23
2018-10-09T04:25:37.718Z,20.63
2018-10-09T04:28:42.133Z,19.53
2018-10-09T04:31:46.476Z,19.50
2018-10-09T04:34:50.738Z,20.43
2018-10-09T04:37:54.999Z,19.77
2018-10-09T04:40:59.326Z,19.50
2018-10-09T04:44:03.655Z,21.00
2018-10-09T04:47:07.992Z,19.87
2018-10-09T04:50:12.305Z,18.87
2018-10-09T04:53:16.609Z,20.07
2018-10-09T04:56:20.936Z,20.07
2018-10-09T04:59:25.291Z,20.97
2018-10-09T05:02:29.604Z,20.77
2018-10-09T05:05:33.872Z,21.17
2018-10-09T05:08:38.240Z,20.60
2018-10-09T05:11:42.573Z,20.77
2018-10-09T05:14:46.861Z,22.07
2018-10-09T05:17:51.243Z,22.27
2018-10-09T05:20:55.482Z,21.47
2018-10-09T05:23:59.992Z,21.07
2018-10-09T05:27:04.854Z,18.80
2018-10-09T05:30:09.197Z,20.07
2018-10-09T05:33:13.507Z,21.10
2018-10-09T05:36:17.852Z,20.60
2018-10-09T05:39:22.181Z,20.70
2018-10-09T05:42:26.467Z,19.67
2018-10-09T05:45:30.797Z,20.27
2018-10-09T05:48:35.128Z,19.90
2018-10-09T05:51:39.467Z,19.17
2018-10-09T05:54:43.789Z,20.33
2018-10-09T05:57:48.079Z,20.53
2018-10-09T06:00:52.412Z,20.87
2018-10-09T06:03:56.750Z,20.63
2018-10-09T06:07:01.034Z,20.20
2018-10-09T06:10:05.694Z,20.43
2018-10-09T06:13:09.990Z,20.77
2018-10-09T06:16:14.260Z,20.87
2018-10-09T06:19:18.567Z,20.40
2018-10-09T06:22:22.939Z,20.50
2018-10-09T06:25:27.209Z,19.57
2018-10-09T06:28:31.565Z,21.17
2018-10-09T06:31:35.856Z,20.40
2018-10-09T06:34:40.152Z,19.73
2018-10-09T06:37:44.513Z,20.87
2018-10-09T06:40:48.795Z,20.80
2018-10-09T06:43:53.140Z,21.43
2018-10-09T06:46:57.439Z,20.63
2018-10-09T06:50:01.696Z,19.50
2018-10-09T06:53:06.090Z,21.43
2018-10-09T06:56:10.756Z,21.20
2018-10-09T06:59:15.024Z,20.63
2018-10-09T07:02:19.366Z,20.03
2018-10-09T07:05:23.692Z,21.47
2018-10-09T07:08:28.035Z,19.87
2018-10-09T07:11:32.443Z,21.23
2018-10-09T07:14:36.760Z,20.80
2018-10-09T07:17:41.064Z,21.47
2018-10-09T07:20:45.549Z,19.83
2018-10-09T07:23:49.930Z,19.87
2018-10-09T07:26:54.237Z,20.37
2018-10-09T07:29:58.609Z,21.03
2018-10-09T07:33:02.985Z,20.97
2018-10-09T07:36:07.485Z,20.57
2018-10-09T07:39:13.508Z,19.57
2018-10-09T07:42:17.918Z,19.07
2018-10-09T07:45:22.475Z,19.20
2018-10-09T07:48:26.833Z,20.30
2018-10-09T07:51:31.187Z,22.27
2018-10-09T07:54:35.541Z,20.70
2018-10-09T07:57:39.821Z,20.97
2018-10-09T08:00:44.105Z,21.30
2018-10-09T08:03:48.453Z,21.13
2018-10-09T08:06:52.907Z,21.63
2018-10-09T08:09:57.312Z,20.17
2018-10-09T08:13:01.612Z,21.10
2018-10-09T08:16:05.953Z,20.50
2018-10-09T08:19:10.400Z,20.70
2018-10-09T08:22:14.715Z,20.73
2018-10-09T08:25:19.010Z,21.20
2018-10-09T08:28:23.293Z,19.27
2018-10-09T08:31:27.628Z,17.60
2018-10-09T08:34:32.008Z,21.37
2018-10-09T08:37:36.233Z,19.97
2018-10-09T08:40:40.567Z,20.33
2018-10-09T08:43:44.961Z,19.23
2018-10-09T08:46:49.305Z,19.77
2018-10-09T08:49:53.699Z,19.13
2018-10-09T08:52:58.065Z,19.90
2018-10-09T08:56:02.451Z,21.43
2018-10-09T08:59:06.976Z,19.17
2018-10-09T09:02:11.429Z,18.97
2018-10-09T09:05:15.826Z,20.10
2018-10-09T09:08:20.145Z,18.83
2018-10-09T09:11:24.469Z,19.97
2018-10-09T09:14:28.792Z,20.20
2018-10-09T09:17:33.253Z,19.30
2018-10-09T09:20:37.695Z,19.87
2018-10-09T09:23:42.094Z,19.30
2018-10-09T09:26:46.571Z,20.10
2018-10-09T09:29:50.923Z,17.60
2018-10-09T09:32:55.324Z,16.73
2018-10-09T09:35:59.649Z,18.50
2018-10-09T09:39:04.820Z,17.27
2018-10-09T09:42:09.125Z,17.53
2018-10-09T09:45:13.491Z,16.50
2018-10-09T09:48:17.863Z,16.93
2018-10-09T09:51:22.183Z,15.70
2018-10-09T09:54:26.499Z,15.47
2018-10-09T09:57:30.931Z,14.87
2018-10-09T10:00:40.738Z,15.17
2018-10-09T10:03:45.137Z,16.07
2018-10-09T10:06:49.607Z,15.40
2018-10-09T10:09:53.979Z,16.13
2018-10-09T10:12:58.409Z,15.77
2018-10-09T10:16:02.798Z,15.03
2018-10-09T10:19:07.471Z,15.03
2018-10-09T10:22:11.788Z,13.63
2018-10-09T10:25:16.201Z,13.03
2018-10-09T10:28:20.607Z,12.17
2018-10-09T10:31:24.929Z,13.77
2018-10-09T10:34:29.240Z,11.10
2018-10-09T10:37:33.571Z,10.70
2018-10-09T10:40:38.377Z,12.00
2018-10-09T10:43:42.705Z,10.67
2018-10-09T10:46:47.045Z,9.40
2018-10-09T10:49:51.374Z,10.77
2018-10-09T10:52:55.785Z,11.23
2018-10-09T10:56:00.211Z,10.57
2018-10-09T10:59:04.983Z,10.13
2018-10-09T11:02:09.318Z,9.73
2018-10-09T11:05:13.678Z,9.90
2018-10-09T11:08:18.272Z,9.50
2018-10-09T11:11:22.538Z,10.30
2018-10-09T11:14:26.827Z,10.17
2018-10-09T11:17:31.174Z,9.00
2018-10-09T11:20:35.477Z,8.63
2018-10-09T11:23:39.948Z,10.17
2018-10-09T11:26:44.365Z,9.30
2018-10-09T11:29:48.791Z,9.97
2018-10-09T11:32:53.161Z,9.83
2018-10-09T11:35:57.450Z,9.90
2018-10-09T11:39:01.820Z,9.47
2018-10-09T11:42:06.362Z,10.63
2018-10-09T11:45:10.819Z,9.83
2018-10-09T11:48:15.185Z,10.53
2018-10-09T11:51:19.502Z,9.73
2018-10-09T11:54:23.837Z,11.63
2018-10-09T11:57:28.180Z,10.60
2018-10-09T12:00:35.567Z,10.80
2018-10-09T12:03:39.913Z,11.07
2018-10-09T12:06:44.179Z,11.80
2018-10-09T12:09:48.538Z,11.50
2018-10-09T12:12:52.859Z,12.23
2018-10-09T12:15:57.446Z,11.20
2018-10-09T12:19:01.724Z,11.30
2018-10-09T12:22:06.019Z,12.00
2018-10-09T12:25:10.320Z,10.77
2018-10-09T12:28:14.588Z,12.03
2018-10-09T12:31:18.892Z,11.40
2018-10-09T12:34:23.181Z,11.37
2018-10-09T12:37:27.519Z,11.17
2018-10-09T12:40:31.875Z,12.17
2018-10-09T12:43:36.275Z,11.13
2018-10-09T12:46:40.720Z,11.20
2018-10-09T12:49:45.097Z,11.80
2018-10-09T12:52:49.508Z,14.00
2018-10-09T12:55:53.760Z,12.57
2018-10-09T12:58:58.461Z,13.63
2018-10-09T13:02:02.821Z,13.73
2018-10-09T13:05:07.165Z,14.73
2018-10-09T13:08:11.672Z,15.13
2018-10-09T13:11:16.281Z,13.33
2018-10-09T13:14:20.640Z,15.27
2018-10-09T13:17:24.921Z,15.47
2018-10-09T13:20:29.251Z,15.37
2018-10-09T13:23:33.589Z,16.73
2018-10-09T13:26:38.152Z,17.20
2018-10-09T13:29:42.511Z,17.17
2018-10-09T13:32:46.859Z,16.00
2018-10-09T13:35:51.264Z,16.20
2018-10-09T13:38:55.579Z,15.80
2018-10-09T13:41:59.925Z,16.93
2018-10-09T13:45:04.275Z,15.10
2018-10-09T13:48:08.673Z,15.47
2018-10-09T13:51:13.073Z,14.77
2018-10-09T13:54:17.360Z,15.73
2018-10-09T13:57:21.748Z,14.40
2018-10-09T14:00:26.169Z,14.53
2018-10-09T14:03:30.548Z,13.83
2018-10-09T14:06:34.900Z,13.30
2018-10-09T14:09:39.192Z,13.37
2018-10-09T14:12:43.517Z,14.83
2018-10-09T14:15:47.870Z,12.70
2018-10-09T14:18:52.186Z,13.97
2018-10-09T14:21:56.520Z,15.10
2018-10-09T14:25:00.911Z,14.83
2018-10-09T14:28:05.430Z,15.37
2018-10-09T14:31:09.988Z,15.63
2018-10-09T14:34:14.264Z,15.83
2018-10-09T14:37:18.652Z,15.13
2018-10-09T14:40:22.993Z,15.97
2018-10-09T14:43:27.313Z,16.20
2018-10-09T14:46:31.873Z,15.90
2018-10-09T14:49:36.231Z,16.27
2018-10-09T14:52:40.516Z,16.23
2018-10-09T14:55:44.825Z,16.60
2018-10-09T14:58:49.852Z,16.33
2018-10-09T15:01:54.216Z,17.10
2018-10-09T15:04:58.556Z,16.40
2018-10-09T15:08:02.911Z,17.13
2018-10-09T15:11:07.635Z,16.83
2018-10-09T15:14:12.180Z,16.90
2018-10-09T15:17:16.557Z,17.30
2018-10-09T15:20:21.007Z,16.87
2018-10-09T15:23:25.413Z,14.93
2018-10-09T15:26:29.824Z,14.03
2018-10-09T15:29:34.258Z,13.30
2018-10-09T15:32:38.581Z,15.37
2018-10-09T15:35:42.929Z,14.37
2018-10-09T15:38:47.369Z,14.33
2018-10-09T15:41:51.751Z,13.97
2018-10-09T15:44:56.416Z,13.97
2018-10-09T15:48:00.708Z,12.87
2018-10-09T15:51:05.048Z,11.83
2018-10-09T15:54:09.458Z,12.03
2018-10-09T15:57:13.796Z,13.13
2018-10-09T16:00:18.210Z,12.00
2018-10-09T16:03:22.559Z,11.47
2018-10-09T16:06:26.850Z,12.17
2018-10-09T16:09:31.254Z,12.20
2018-10-09T16:12:35.666Z,12.70
2018-10-09T16:15:40.006Z,14.07
2018-10-09T16:18:44.432Z,14.40
2018-10-09T16:21:48.779Z,14.90
2018-10-09T16:24:53.168Z,15.50
2018-10-09T16:27:57.601Z,15.90
2018-10-09T16:31:01.920Z,16.60
2018-10-09T16:34:06.373Z,16.43
2018-10-09T16:37:10.776Z,16.77
2018-10-09T16:40:16.073Z,17.40
2018-10-09T16:43:20.405Z,16.27
2018-10-09T16:46:24.765Z,18.03
2018-10-09T16:49:29.172Z,18.37
2018-10-09T16:52:33.528Z,18.87
2018-10-09T16:55:37.941Z,19.83
2018-10-09T16:58:42.322Z,18.43
2018-10-09T17:01:46.795Z,19.40
2018-10-09T17:04:51.150Z,20.40
2018-10-09T17:07:55.575Z,19.87
2018-10-09T17:10:59.942Z,20.50
2018-10-09T17:14:04.242Z,19.73
2018-10-09T17:17:08.576Z,20.80
2018-10-09T17:20:13.018Z,20.07
2018-10-09T17:23:17.337Z,20.87
2018-10-09T17:26:21.749Z,21.63
2018-10-09T17:29:26.078Z,21.23
2018-10-09T17:32:30.422Z,21.43
2018-10-09T17:35:34.829Z,22.70
2018-10-09T17:38:39.131Z,22.87
2018-10-09T17:41:43.574Z,21.30
2018-10-09T17:44:48.014Z,23.17
2018-10-09T17:47:52.421Z,21.63
2018-10-09T17:50:57.960Z,22.20
2018-10-09T17:54:02.393Z,21.47
2018-10-09T17:57:06.948Z,23.20
2018-10-09T18:00:11.329Z,21.77
2018-10-09T18:03:15.779Z,23.47
2018-10-09T18:06:20.192Z,23.87
2018-10-09T18:09:24.625Z,23.33
2018-10-09T18:12:29.033Z,23.27
2018-10-09T18:15:33.309Z,24.90
2018-10-09T18:18:37.691Z,24.27
2018-10-09T18:21:42.115Z,24.27
2018-10-09T18:24:46.519Z,24.83
2018-10-09T18:27:50.973Z,24.27
2018-10-09T18:30:55.400Z,25.17
2018-10-09T18:33:59.794Z,25.13
2018-10-09T18:37:04.311Z,24.00
2018-10-09T18:40:08.638Z,24.50
2018-10-09T18:43:13.002Z,24.13
2018-10-09T18:46:17.398Z,25.73
2018-10-09T18:49:21.766Z,24.67
2018-10-09T18:52:26.117Z,24.43
2018-10-09T18:55:30.476Z,24.20
2018-10-09T18:58:34.931Z,24.67
2018-10-09T19:01:39.257Z,24.47
2018-10-09T19:04:43.660Z,24.43
2018-10-09T19:07:48.056Z,24.93
2018-10-09T19:10:52.651Z,24.53
2018-10-09T19:13:57.447Z,24.00
2018-10-09T19:17:01.751Z,23.17
2018-10-09T19:20:06.461Z,24.43
2018-10-09T19:23:11.119Z,24.80
2018-10-09T19:26:16.025Z,26.60
2018-10-09T19:29:20.509Z,26.20
2018-10-09T19:32:25.046Z,27.33
2018-10-09T19:35:29.415Z,28.77
2018-10-09T19:38:33.834Z,28.30
2018-10-09T19:41:38.266Z,29.07
2018-10-09T19:44:42.642Z,29.63
2018-10-09T19:47:47.105Z,28.53
2018-10-09T19:50:52.464Z,27.87
2018-10-09T19:53:56.788Z,29.70
2018-10-09T19:57:01.193Z,30.07
2018-10-09T20:00:06.088Z,30.53
2018-10-09T20:03:10.563Z,29.77
2018-10-09T20:06:14.995Z,30.37
2018-10-09T20:09:19.418Z,30.57
2018-10-09T20:12:23.954Z,31.47
2018-10-09T20:15:28.242Z,31.23
2018-10-09T20:18:32.837Z,30.47
2018-10-09T20:21:37.186Z,31.70
2018-10-09T20:24:41.554Z,32.50
2018-10-09T20:27:45.854Z,31.27
2018-10-09T20:30:50.143Z,33.30
2018-10-09T20:33:54.488Z,34.37
2018-10-09T20:36:58.902Z,33.70
2018-10-09T20:40:03.232Z,34.30
2018-10-09T20:43:07.651Z,33.63
2018-10-09T20:46:12.045Z,34.00
2018-10-09T20:49:16.366Z,34.30
2018-10-09T20:52:20.722Z,34.00
2018-10-09T20:55:25.145Z,35.17
2018-10-09T20:58:29.801Z,35.17
2018-10-09T21:01:34.124Z,35.70
2018-10-09T21:04:38.434Z,35.83
2018-10-09T21:07:42.820Z,34.20
2018-10-09T21:10:47.197Z,33.23
2018-10-09T21:13:51.590Z,34.07
2018-10-09T21:16:55.893Z,34.20
2018-10-09T21:20:00.224Z,36.27
2018-10-09T21:23:04.528Z,33.97
2018-10-09T21:26:08.974Z,33.90
2018-10-09T21:29:13.316Z,36.03
2018-10-09T21:32:17.715Z,33.57
2018-10-09T21:35:22.037Z,36.30
2018-10-09T21:38:26.381Z,35.80
2018-10-09T21:41:30.792Z,37.23
2018-10-09T21:44:35.127Z,36.47
2018-10-09T21:47:43.507Z,37.37
2018-10-09T21:50:47.933Z,36.60
2018-10-09T21:53:52.270Z,36.63
2018-10-09T21:56:56.703Z,36.43
2018-10-09T22:00:00.980Z,37.17
2018-10-09T22:03:05.421Z,37.97
2018-10-09T22:06:10.417Z,40.03
2018-10-09T22:09:14.732Z,39.97
2018-10-09T22:12:19.131Z,38.40
2018-10-09T22:15:23.426Z,39.23
2018-10-09T22:18:27.733Z,39.30
2018-10-09T22:21:32.090Z,38.00
2018-10-09T22:24:36.414Z,39.57
2018-10-09T22:27:40.727Z,38.67
2018-10-09T22:30:45.026Z,40.60
2018-10-09T22:33:49.382Z,39.17
2018-10-09T22:36:53.774Z,39.77
2018-10-09T22:39:58.117Z,41.13
2018-10-09T22:43:02.413Z,40.33
2018-10-09T22:46:06.718Z,39.73
2018-10-09T22:49:10.979Z,37.00
2018-10-09T22:52:15.268Z,36.33
2018-10-09T22:55:19.633Z,37.17
2018-10-09T22:58:24.021Z,36.07
2018-10-09T23:01:28.351Z,37.60
2018-10-09T23:04:32.659Z,39.00
2018-10-09T23:07:37.012Z,38.07
2018-10-09T23:10:41.314Z,38.97
2018-10-09T23:13:45.636Z,41.93
2018-10-09T23:16:49.933Z,41.90
2018-10-09T23:19:54.275Z,42.20
2018-10-09T23:22:58.588Z,41.93
2018-10-09T23:26:02.867Z,43.43
2018-10-09T23:29:07.231Z,41.03
2018-10-09T23:32:11.498Z,39.60
2018-10-09T23:35:15.777Z,36.97
2018-10-09T23:38:20.285Z,36.53
2018-10-09T23:41:24.622Z,38.43
2018-10-09T23:44:28.959Z,40.33
2018-10-09T23:47:33.245Z,38.73
2018-10-09T23:50:42.228Z,36.17
2018-10-09T23:53:46.529Z,38.27
2018-10-09T23:56:50.858Z,37.77
2018-10-09T23:59:55.153Z,37.17
